createdAt,value
2023-05-23T00:01:19.669Z,95032.22
2023-05-23T00:05:03.543Z,95024.53
2023-05-23T00:08:47.739Z,95023.69
2023-05-23T00:12:30.588Z,95025.78
2023-05-23T00:16:14.977Z,95028.97
2023-05-23T00:19:58.882Z,95027.84
2023-05-23T00:23:42.364Z,95023.03
2023-05-23T00:27:26.790Z,95018.22
2023-05-23T00:31:09.786Z,95023.53
2023-05-23T00:34:54.357Z,95025.66
2023-05-23T00:38:37.107Z,95024.56
2023-05-23T00:42:19.825Z,95027.22
2023-05-23T00:46:04.210Z,95022.94
2023-05-23T00:49:47.131Z,95030.88
2023-05-23T00:53:29.972Z,95031.38
2023-05-23T00:57:12.713Z,95031.38
2023-05-23T01:00:55.792Z,95031.41
2023-05-23T01:04:40.113Z,95021.34
2023-05-23T01:08:22.847Z,95023.19
2023-05-23T01:12:18.607Z,95039.38
2023-05-23T01:16:05.987Z,95038.78
2023-05-23T01:19:58.332Z,95043.84
2023-05-23T01:24:05.036Z,95043.00
2023-05-23T01:27:54.243Z,95044.25
2023-05-23T01:31:38.154Z,95039.19
2023-05-23T01:35:25.790Z,95045.25
2023-05-23T01:39:08.548Z,95047.00
2023-05-23T01:42:53.365Z,95046.72
2023-05-23T01:46:37.275Z,95049.59
2023-05-23T01:50:20.141Z,95045.91
2023-05-23T01:54:03.002Z,95058.63
2023-05-23T01:57:48.505Z,95059.13
2023-05-23T02:01:32.820Z,95063.38
2023-05-23T02:05:15.662Z,95065.53
2023-05-23T02:08:58.666Z,95066.53
2023-05-23T02:12:41.416Z,95071.22
2023-05-23T02:16:26.137Z,95069.31
2023-05-23T02:20:11.436Z,95067.69
2023-05-23T02:23:54.214Z,95066.59
2023-05-23T02:27:36.892Z,95072.38
2023-05-23T02:31:19.653Z,95066.22
2023-05-23T02:35:02.456Z,95068.56
2023-05-23T02:38:46.534Z,95074.50
2023-05-23T02:42:29.283Z,95080.03
2023-05-23T02:46:13.737Z,95077.06
2023-05-23T02:49:56.499Z,95081.25
2023-05-23T02:53:39.473Z,95076.44
2023-05-23T02:57:23.604Z,95081.44
2023-05-23T03:01:08.466Z,95081.53
2023-05-23T03:04:51.208Z,95079.44
2023-05-23T03:08:33.915Z,95074.06
2023-05-23T03:12:16.611Z,95084.09
2023-05-23T03:16:00.874Z,95078.00
2023-05-23T03:19:43.725Z,95081.94
2023-05-23T03:23:29.512Z,95080.81
2023-05-23T03:27:12.285Z,95087.47
2023-05-23T03:30:54.942Z,95090.28
2023-05-23T03:34:39.038Z,95085.47
2023-05-23T03:38:22.083Z,95093.91
2023-05-23T03:42:05.126Z,95093.34
2023-05-23T03:45:48.245Z,95090.78
2023-05-23T03:49:31.006Z,95099.84
2023-05-23T03:53:15.078Z,95099.78
2023-05-23T03:56:57.940Z,95094.72
2023-05-23T04:00:40.899Z,95101.06
2023-05-23T04:04:25.118Z,95103.94
2023-05-23T04:08:08.202Z,95102.19
2023-05-23T04:11:53.021Z,95103.72
2023-05-23T04:15:36.231Z,95102.59
2023-05-23T04:19:18.989Z,95109.03
2023-05-23T04:23:01.773Z,95123.97
2023-05-23T04:26:45.059Z,95125.16
2023-05-23T04:30:30.560Z,95131.59
2023-05-23T04:34:14.974Z,95124.09
2023-05-23T04:37:57.687Z,95131.59
2023-05-23T04:41:45.360Z,95128.38
2023-05-23T04:45:32.555Z,95135.28
2023-05-23T04:49:19.858Z,95132.94
2023-05-23T04:53:03.573Z,95125.63
2023-05-23T04:56:46.494Z,95128.84
2023-05-23T05:00:31.343Z,95133.91
2023-05-23T05:04:14.062Z,95145.72
2023-05-23T05:07:57.095Z,95142.34
2023-05-23T05:11:39.885Z,95148.53
2023-05-23T05:15:22.585Z,95159.56
2023-05-23T05:19:07.027Z,95149.75
2023-05-23T05:22:56.892Z,95139.78
2023-05-23T05:26:42.777Z,95137.03
2023-05-23T05:30:25.502Z,95134.25
2023-05-23T05:34:09.628Z,95130.31
2023-05-23T05:37:55.091Z,95134.25
2023-05-23T05:41:37.889Z,95146.63
2023-05-23T05:45:20.703Z,95140.81
2023-05-23T05:49:03.578Z,95142.59
2023-05-23T05:52:47.695Z,95146.91
2023-05-23T05:56:30.445Z,95152.59
2023-05-23T06:00:15.259Z,95154.50
2023-05-23T06:03:58.532Z,95159.22
2023-05-23T06:07:41.947Z,95159.91
2023-05-23T06:11:26.610Z,95161.25
2023-05-23T06:15:10.480Z,95169.34
2023-05-23T06:18:53.320Z,95165.22
2023-05-23T06:22:36.152Z,95159.09
2023-05-23T06:26:18.907Z,95160.88
2023-05-23T06:30:03.527Z,95174.03
2023-05-23T06:33:46.304Z,95179.25
2023-05-23T06:37:29.020Z,95168.53
2023-05-23T06:41:11.969Z,95169.84
2023-05-23T06:44:54.770Z,95169.09
2023-05-23T06:48:39.280Z,95169.41
2023-05-23T06:52:21.996Z,95175.66
2023-05-23T06:56:04.967Z,95183.78
2023-05-23T06:59:47.676Z,95180.69
2023-05-23T07:03:30.429Z,95186.41
2023-05-23T07:07:14.820Z,95175.88
2023-05-23T07:11:00.297Z,95175.41
2023-05-23T07:14:42.997Z,95183.38
2023-05-23T07:18:26.121Z,95183.66
2023-05-23T07:22:09.131Z,95189.50
2023-05-23T07:26:01.731Z,95193.72
2023-05-23T07:29:45.790Z,95196.53
2023-05-23T07:33:28.876Z,95199.97
2023-05-23T07:37:11.634Z,95193.09
2023-05-23T07:41:09.820Z,95194.25
2023-05-23T07:44:54.494Z,95190.78
2023-05-23T07:48:37.191Z,95192.41
2023-05-23T07:52:20.007Z,95208.97
2023-05-23T07:56:04.148Z,95203.59
2023-05-23T07:59:47.080Z,95203.44
2023-05-23T08:03:29.817Z,95203.56
2023-05-23T08:07:12.943Z,95208.41
2023-05-23T08:10:55.684Z,95211.47
2023-05-23T08:14:50.865Z,95208.91
2023-05-23T08:18:36.266Z,95213.91
2023-05-23T08:22:19.087Z,95213.84
2023-05-23T08:26:02.172Z,95216.91
2023-05-23T08:29:46.500Z,95222.44
2023-05-23T08:33:29.239Z,95230.59
2023-05-23T08:37:12.189Z,95221.66
2023-05-23T08:40:55.974Z,95232.88
2023-05-23T08:44:38.786Z,95235.63
2023-05-23T08:48:22.900Z,95236.16
2023-05-23T08:52:06.269Z,95234.50
2023-05-23T08:55:51.232Z,95239.63
2023-05-23T08:59:35.163Z,95236.06
2023-05-23T09:03:18.789Z,95237.75
2023-05-23T09:07:04.299Z,95243.72
2023-05-23T09:10:47.398Z,95242.22
2023-05-23T09:14:31.965Z,95234.63
2023-05-23T09:18:14.818Z,95238.88
2023-05-23T09:21:57.565Z,95248.16
2023-05-23T09:25:47.489Z,95240.66
2023-05-23T09:29:30.178Z,95247.78
2023-05-23T09:33:15.328Z,95241.41
2023-05-23T09:36:58.273Z,95234.59
2023-05-23T09:40:46.233Z,95245.25
2023-05-23T09:44:29.933Z,95249.78
2023-05-23T09:48:14.168Z,95244.38
2023-05-23T09:52:00.760Z,95257.63
2023-05-23T09:55:44.823Z,95246.13
2023-05-23T09:59:29.859Z,95249.63
2023-05-23T10:03:14.268Z,95261.84
2023-05-23T10:07:00.255Z,95240.03
2023-05-23T10:11:16.979Z,95242.78
2023-05-23T10:15:04.073Z,95242.00
2023-05-23T10:18:50.577Z,95231.91
2023-05-23T10:22:33.725Z,95242.72
2023-05-23T10:26:16.808Z,95242.03
2023-05-23T10:30:01.970Z,95242.97
2023-05-23T10:33:48.959Z,95240.00
2023-05-23T10:37:36.729Z,95236.06
2023-05-23T10:41:24.358Z,95223.38
2023-05-23T10:45:18.841Z,95227.25
2023-05-23T10:49:01.626Z,95229.00
2023-05-23T10:52:45.090Z,95238.69
2023-05-23T10:56:32.785Z,95218.03
2023-05-23T11:00:17.935Z,95231.81
2023-05-23T11:04:06.809Z,95232.38
2023-05-23T11:08:07.920Z,95227.34
2023-05-23T11:11:55.211Z,95222.56
2023-05-23T11:15:45.906Z,95230.03
2023-05-23T11:19:30.037Z,95217.72
2023-05-23T11:23:13.693Z,95212.13
2023-05-23T11:27:00.432Z,95203.84
2023-05-23T11:30:43.374Z,95197.44
2023-05-23T11:34:27.988Z,95208.94
2023-05-23T11:38:11.337Z,95201.69
2023-05-23T11:42:00.914Z,95193.59
2023-05-23T11:45:46.797Z,95194.84
2023-05-23T11:49:31.633Z,95193.91
2023-05-23T11:53:17.112Z,95182.72
2023-05-23T11:57:00.248Z,95187.09
2023-05-23T12:00:46.343Z,95183.34
2023-05-23T12:04:29.309Z,95187.13
2023-05-23T12:08:17.700Z,95177.00
2023-05-23T12:12:00.477Z,95176.41
2023-05-23T12:15:43.255Z,95181.06
2023-05-23T12:19:26.173Z,95179.97
2023-05-23T12:23:09.231Z,95179.09
2023-05-23T12:26:54.994Z,95180.22
2023-05-23T12:30:43.279Z,95185.00
2023-05-23T12:34:26.319Z,95187.84
2023-05-23T12:38:09.507Z,95195.94
2023-05-23T12:41:53.610Z,95194.84
2023-05-23T12:45:37.623Z,95200.53
2023-05-23T12:49:21.798Z,95185.50
2023-05-23T12:53:04.479Z,95191.31
2023-05-23T12:56:47.181Z,95197.56
2023-05-23T13:00:31.910Z,95196.34
2023-05-23T13:04:14.748Z,95196.84
2023-05-23T13:07:59.469Z,95196.69
2023-05-23T13:11:42.730Z,95210.44
2023-05-23T13:15:25.491Z,95194.66
2023-05-23T13:19:09.696Z,95181.94
2023-05-23T13:22:52.483Z,95174.75
2023-05-23T13:26:35.185Z,95179.50
2023-05-23T13:30:21.051Z,95178.75
2023-05-23T13:34:03.787Z,95174.56
2023-05-23T13:37:47.916Z,95169.88
2023-05-23T13:41:30.672Z,95167.25
2023-05-23T13:45:13.366Z,95157.03
2023-05-23T13:48:56.076Z,95155.09
2023-05-23T13:52:40.311Z,95157.09
2023-05-23T13:56:27.217Z,95167.38
2023-05-23T14:00:11.579Z,95166.56
2023-05-23T14:03:54.467Z,95159.56
2023-05-23T14:07:38.360Z,95168.91
2023-05-23T14:11:21.239Z,95168.34
2023-05-23T14:15:06.061Z,95174.19
2023-05-23T14:18:48.860Z,95162.59
2023-05-23T14:22:31.573Z,95166.22
2023-05-23T14:26:16.939Z,95175.41
2023-05-23T14:29:59.624Z,95187.19
2023-05-23T14:33:43.718Z,95186.56
2023-05-23T14:37:26.431Z,95177.75
2023-05-23T14:41:09.255Z,95174.25
2023-05-23T14:44:54.330Z,95174.22
2023-05-23T14:48:37.664Z,95188.53
2023-05-23T14:52:21.965Z,95190.44
2023-05-23T14:56:04.812Z,95201.78
2023-05-23T14:59:48.009Z,95194.34
2023-05-23T15:03:30.793Z,95200.75
2023-05-23T15:07:14.828Z,95204.94
2023-05-23T15:10:58.972Z,95200.97
2023-05-23T15:14:41.905Z,95198.09
2023-05-23T15:18:38.888Z,95201.09
2023-05-23T15:22:37.922Z,95208.88
2023-05-23T15:26:23.900Z,95208.34
2023-05-23T15:30:07.999Z,95199.56
2023-05-23T15:33:50.871Z,95205.97
2023-05-23T15:37:33.604Z,95198.50
2023-05-23T15:41:17.713Z,95215.31
2023-05-23T15:45:01.913Z,95212.66
2023-05-23T15:48:44.847Z,95212.94
2023-05-23T15:52:27.654Z,95222.56
2023-05-23T15:56:10.731Z,95215.59
2023-05-23T15:59:53.406Z,95230.19
2023-05-23T16:03:38.201Z,95227.00
2023-05-23T16:07:20.930Z,95226.25
2023-05-23T16:11:03.613Z,95233.25
2023-05-23T16:14:46.365Z,95227.38
2023-05-23T16:18:29.210Z,95236.94
2023-05-23T16:22:13.316Z,95231.75
2023-05-23T16:25:56.037Z,95226.88
2023-05-23T16:29:38.826Z,95232.56
2023-05-23T16:33:22.830Z,95234.44
2023-05-23T16:37:06.012Z,95237.75
2023-05-23T16:40:50.105Z,95228.56
2023-05-23T16:44:32.868Z,95228.59
2023-05-23T16:48:15.608Z,95227.06
2023-05-23T16:51:58.323Z,95233.22
2023-05-23T16:55:41.358Z,95238.81
2023-05-23T16:59:25.631Z,95237.97
2023-05-23T17:03:08.540Z,95237.97
2023-05-23T17:06:51.389Z,95234.22
2023-05-23T17:10:34.865Z,95248.31
2023-05-23T17:14:17.648Z,95249.59
2023-05-23T17:18:01.814Z,95247.13
2023-05-23T17:21:44.666Z,95259.06
2023-05-23T17:25:27.436Z,95269.34
2023-05-23T17:29:10.415Z,95262.56
2023-05-23T17:32:53.336Z,95260.38
2023-05-23T17:36:37.783Z,95270.97
2023-05-23T17:40:20.928Z,95276.75
2023-05-23T17:44:03.726Z,95274.56
2023-05-23T17:47:47.184Z,95272.41
2023-05-23T17:51:29.951Z,95277.75
2023-05-23T17:55:14.052Z,95277.84
2023-05-23T17:58:57.152Z,95282.53
2023-05-23T18:02:40.087Z,95284.88
2023-05-23T18:06:22.993Z,95284.75
2023-05-23T18:10:08.363Z,95286.66
2023-05-23T18:13:52.551Z,95281.88
2023-05-23T18:17:38.614Z,95297.38
2023-05-23T18:21:21.878Z,95300.03
2023-05-23T18:25:05.186Z,95303.75
2023-05-23T18:28:47.996Z,95293.09
2023-05-23T18:32:32.477Z,95302.75
2023-05-23T18:36:15.233Z,95307.81
2023-05-23T18:39:59.341Z,95310.25
2023-05-23T18:43:42.094Z,95320.34
2023-05-23T18:47:24.842Z,95311.28
2023-05-23T18:51:09.429Z,95317.72
2023-05-23T18:54:53.904Z,95326.75
2023-05-23T18:58:37.142Z,95328.88
2023-05-23T19:02:20.280Z,95336.88
2023-05-23T19:06:03.392Z,95337.94
2023-05-23T19:09:47.609Z,95350.75
2023-05-23T19:13:30.707Z,95363.59
2023-05-23T19:17:13.519Z,95361.53
2023-05-23T19:20:56.537Z,95363.41
2023-05-23T19:24:39.538Z,95371.19
2023-05-23T19:28:23.651Z,95373.19
2023-05-23T19:32:06.739Z,95378.88
2023-05-23T19:35:49.617Z,95374.56
2023-05-23T19:39:32.430Z,95371.75
2023-05-23T19:43:15.196Z,95373.72
2023-05-23T19:46:59.507Z,95369.84
2023-05-23T19:50:43.447Z,95377.44
2023-05-23T19:54:28.056Z,95385.66
2023-05-23T19:58:10.977Z,95380.19
2023-05-23T20:01:54.008Z,95395.47
2023-05-23T20:05:38.167Z,95384.22
2023-05-23T20:09:21.334Z,95394.19
2023-05-23T20:13:04.361Z,95395.63
2023-05-23T20:16:47.217Z,95394.00
2023-05-23T20:20:29.955Z,95397.69
2023-05-23T20:24:14.955Z,95400.72
2023-05-23T20:27:57.739Z,95403.28
2023-05-23T20:31:40.581Z,95417.59
2023-05-23T20:35:24.082Z,95421.31
2023-05-23T20:39:07.243Z,95428.72
2023-05-23T20:42:54.112Z,95428.63
2023-05-23T20:46:36.976Z,95429.66
2023-05-23T20:50:22.009Z,95421.59
2023-05-23T20:54:05.302Z,95432.69
2023-05-23T20:57:48.085Z,95427.78
2023-05-23T21:01:32.979Z,95436.34
2023-05-23T21:05:15.981Z,95425.84
2023-05-23T21:08:58.722Z,95430.94
2023-05-23T21:12:47.003Z,95430.50
2023-05-23T21:16:31.310Z,95441.25
2023-05-23T21:20:17.281Z,95442.75
2023-05-23T21:24:00.031Z,95435.50
2023-05-23T21:27:43.220Z,95435.63
2023-05-23T21:31:40.259Z,95448.56
2023-05-23T21:35:25.363Z,95458.88
2023-05-23T21:39:08.288Z,95454.97
2023-05-23T21:42:50.997Z,95465.56
2023-05-23T21:46:33.819Z,95467.75
2023-05-23T21:50:16.610Z,95469.13
2023-05-23T21:54:00.693Z,95463.50
2023-05-23T21:57:43.382Z,95473.84
2023-05-23T22:01:28.523Z,95475.78
2023-05-23T22:05:11.340Z,95484.53
2023-05-23T22:08:54.272Z,95482.91
2023-05-23T22:12:38.748Z,95488.75
2023-05-23T22:16:22.003Z,95486.44
2023-05-23T22:20:06.435Z,95478.94
2023-05-23T22:23:49.158Z,95491.91
2023-05-23T22:27:34.638Z,95488.09
2023-05-23T22:31:18.742Z,95493.63
2023-05-23T22:35:01.561Z,95492.81
2023-05-23T22:38:44.328Z,95495.69
2023-05-23T22:42:27.128Z,95485.78
2023-05-23T22:46:10.040Z,95487.72
2023-05-23T22:49:56.517Z,95488.63
2023-05-23T22:53:39.376Z,95479.75
2023-05-23T22:57:22.164Z,95476.44
2023-05-23T23:01:05.123Z,95483.72
2023-05-23T23:04:48.334Z,95481.22
2023-05-23T23:08:32.427Z,95483.22
2023-05-23T23:12:15.109Z,95471.56
2023-05-23T23:15:59.115Z,95475.97
2023-05-23T23:19:42.532Z,95469.88
2023-05-23T23:23:25.254Z,95477.00
2023-05-23T23:27:09.325Z,95472.31
2023-05-23T23:30:52.261Z,95480.69
2023-05-23T23:34:34.925Z,95472.53
2023-05-23T23:38:17.614Z,95485.16
2023-05-23T23:42:00.376Z,95477.94
2023-05-23T23:45:44.447Z,95469.91
2023-05-23T23:49:27.131Z,95478.50
2023-05-23T23:53:10.044Z,95472.84
2023-05-23T23:56:52.758Z,95465.16
